Joe Foss Field Airport
KFSD : rendu visible

Aérodrome :











RETROUVEZ-NOUS SUR...

 
LOGIN :

S'inscrire | Disclaimer

   EN    FR    IT 

 









Légende :    VFR   VFR Marginal   IFR   IFR Intensif   IFR Très Intensif
Visi : 
Plafond : 
>= 8 km
>= 3000ft
5 à 8 km
1000 à 3000 ft
1500m à 5 km
500 à 1000 ft
800 à 1500m
200 à 500 ft
< 800m
< 200 ft
Symboles :   Orages  Brouillard  Fortes neiges  Fortes précipitations  Vent > 20 kt






- Altitude de l'aérodrome : 1429 ft
- Code IATA : FSD


KFSD - Joe Foss Field

DERNIER METAR :
  • 110056Z 00000KT 10SM CLR 25/13 A2997 RMK AO2 SLP143 T02500128

METARs EXPIRÉS :
  • 102356Z 32003KT 10SM CLR 26/12 A2998 RMK AO2 SLP144 T02610117 10272 20200 58008
  • 102256Z 31004KT 10SM CLR 27/11 A2999 RMK AO2 SLP147 T02670111

TAF KFSD
Valide du 11 à 00h jusqu'au 12 à 00h UTC


102337Z 1100/1124 VRB03KT P6SM SKC
FM111400 18007KT P6SM SKC
FM111800 17011G17KT P6SM FEW250
FIR KZMP / Amérique du Nord



MET'MAP, la Météo Aéronautique d'un coup d'oeil ! - Copyright ORBIFLY Décembre 2007 - Disclaimer

ORBIFLY MET'MAP TEAM :

Programmation & Développement : Alexandra Zaïnal
Sur une idée originale de : Baudouin d'Aumeries
Assistance à la programmation : Marc-Olivier Méhu
Soutien technique & logistique : Manuel Goepfert

Contact : metmap@orbifly.com




SOURCES & CREDITS :

   NOAA       Earth
Advisory